sensor_id;sensor_type;location;lat;lon;timestamp;P1;durP1;ratioP1;P2;durP2;ratioP2
64094;SDS011;50353;51.420;5.682;2023-07-20T00:02:04;4.57;;;2.40;;
64094;SDS011;50353;51.420;5.682;2023-07-20T00:04:30;4.95;;;2.50;;
64094;SDS011;50353;51.420;5.682;2023-07-20T00:06:57;3.97;;;2.30;;
64094;SDS011;50353;51.420;5.682;2023-07-20T00:09:22;5.43;;;2.33;;
64094;SDS011;50353;51.420;5.682;2023-07-20T00:11:48;4.95;;;2.28;;
64094;SDS011;50353;51.420;5.682;2023-07-20T00:14:17;8.18;;;2.78;;
64094;SDS011;50353;51.420;5.682;2023-07-20T00:16:43;5.35;;;2.58;;
64094;SDS011;50353;51.420;5.682;2023-07-20T00:19:09;4.43;;;2.63;;
64094;SDS011;50353;51.420;5.682;2023-07-20T00:21:35;4.60;;;2.55;;
64094;SDS011;50353;51.420;5.682;2023-07-20T00:24:00;7.82;;;2.80;;
64094;SDS011;50353;51.420;5.682;2023-07-20T00:26:26;4.73;;;2.30;;
64094;SDS011;50353;51.420;5.682;2023-07-20T00:28:51;7.67;;;2.97;;
64094;SDS011;50353;51.420;5.682;2023-07-20T00:31:16;6.38;;;2.65;;
64094;SDS011;50353;51.420;5.682;2023-07-20T00:33:42;4.72;;;2.45;;
64094;SDS011;50353;51.420;5.682;2023-07-20T00:36:07;5.43;;;2.60;;
64094;SDS011;50353;51.420;5.682;2023-07-20T00:38:32;6.20;;;2.85;;
64094;SDS011;50353;51.420;5.682;2023-07-20T00:40:58;4.20;;;2.42;;
64094;SDS011;50353;51.420;5.682;2023-07-20T00:43:23;4.60;;;2.17;;
64094;SDS011;50353;51.420;5.682;2023-07-20T00:45:48;5.67;;;2.57;;
64094;SDS011;50353;51.420;5.682;2023-07-20T00:48:14;6.50;;;2.65;;
64094;SDS011;50353;51.420;5.682;2023-07-20T00:50:39;2.88;;;1.92;;
64094;SDS011;50353;51.420;5.682;2023-07-20T00:53:05;4.90;;;2.67;;
64094;SDS011;50353;51.420;5.682;2023-07-20T00:55:31;7.20;;;2.40;;
64094;SDS011;50353;51.420;5.682;2023-07-20T00:57:56;4.05;;;2.42;;
64094;SDS011;50353;51.420;5.682;2023-07-20T01:00:22;5.05;;;2.30;;
64094;SDS011;50353;51.420;5.682;2023-07-20T01:02:48;5.53;;;2.20;;
64094;SDS011;50353;51.420;5.682;2023-07-20T01:05:13;3.95;;;2.50;;
64094;SDS011;50353;51.420;5.682;2023-07-20T01:07:46;4.40;;;2.30;;
64094;SDS011;50353;51.420;5.682;2023-07-20T01:10:34;5.30;;;2.55;;
64094;SDS011;50353;51.420;5.682;2023-07-20T01:13:04;4.97;;;2.50;;
64094;SDS011;50353;51.420;5.682;2023-07-20T01:15:33;3.75;;;2.10;;
64094;SDS011;50353;51.420;5.682;2023-07-20T01:20:26;7.85;;;3.45;;
64094;SDS011;50353;51.420;5.682;2023-07-20T01:31:34;4.05;;;2.10;;
64094;SDS011;50353;51.420;5.682;2023-07-20T01:34:02;4.10;;;2.50;;
64094;SDS011;50353;51.420;5.682;2023-07-20T01:36:30;6.32;;;2.25;;
64094;SDS011;50353;51.420;5.682;2023-07-20T01:38:59;5.38;;;2.38;;
64094;SDS011;50353;51.420;5.682;2023-07-20T01:41:25;4.03;;;1.98;;
64094;SDS011;50353;51.420;5.682;2023-07-20T01:43:50;4.80;;;2.58;;
64094;SDS011;50353;51.420;5.682;2023-07-20T01:46:16;4.85;;;2.22;;
64094;SDS011;50353;51.420;5.682;2023-07-20T01:48:41;5.45;;;2.35;;
64094;SDS011;50353;51.420;5.682;2023-07-20T01:51:07;6.90;;;2.60;;
64094;SDS011;50353;51.420;5.682;2023-07-20T01:53:32;8.07;;;3.30;;
64094;SDS011;50353;51.420;5.682;2023-07-20T01:55:57;5.05;;;2.72;;
64094;SDS011;50353;51.420;5.682;2023-07-20T01:58:23;8.00;;;3.20;;
64094;SDS011;50353;51.420;5.682;2023-07-20T02:00:49;4.82;;;2.00;;
64094;SDS011;50353;51.420;5.682;2023-07-20T02:03:15;3.28;;;2.13;;
64094;SDS011;50353;51.420;5.682;2023-07-20T02:05:43;4.40;;;2.22;;
64094;SDS011;50353;51.420;5.682;2023-07-20T02:08:08;5.05;;;2.50;;
64094;SDS011;50353;51.420;5.682;2023-07-20T02:10:34;5.10;;;2.85;;
64094;SDS011;50353;51.420;5.682;2023-07-20T02:13:00;6.57;;;2.25;;
64094;SDS011;50353;51.420;5.682;2023-07-20T02:15:25;6.43;;;2.70;;
64094;SDS011;50353;51.420;5.682;2023-07-20T02:17:50;4.43;;;2.25;;
64094;SDS011;50353;51.420;5.682;2023-07-20T02:20:15;6.67;;;2.70;;
64094;SDS011;50353;51.420;5.682;2023-07-20T02:22:41;5.88;;;2.65;;
64094;SDS011;50353;51.420;5.682;2023-07-20T02:25:07;5.95;;;2.33;;
64094;SDS011;50353;51.420;5.682;2023-07-20T02:27:36;7.50;;;2.35;;
64094;SDS011;50353;51.420;5.682;2023-07-20T02:30:02;4.32;;;2.25;;
64094;SDS011;50353;51.420;5.682;2023-07-20T02:32:28;6.35;;;2.55;;
64094;SDS011;50353;51.420;5.682;2023-07-20T02:34:54;5.28;;;2.95;;
64094;SDS011;50353;51.420;5.682;2023-07-20T02:37:20;5.35;;;2.88;;
64094;SDS011;50353;51.420;5.682;2023-07-20T02:39:45;6.63;;;3.13;;
64094;SDS011;50353;51.420;5.682;2023-07-20T02:42:10;5.13;;;2.40;;
64094;SDS011;50353;51.420;5.682;2023-07-20T02:44:36;8.80;;;3.10;;
64094;SDS011;50353;51.420;5.682;2023-07-20T02:47:01;6.50;;;3.20;;
64094;SDS011;50353;51.420;5.682;2023-07-20T02:49:26;8.50;;;3.40;;
64094;SDS011;50353;51.420;5.682;2023-07-20T02:51:52;10.32;;;3.30;;
64094;SDS011;50353;51.420;5.682;2023-07-20T02:54:17;7.40;;;3.15;;
64094;SDS011;50353;51.420;5.682;2023-07-20T02:56:43;7.15;;;3.28;;
64094;SDS011;50353;51.420;5.682;2023-07-20T02:59:08;4.13;;;2.90;;
64094;SDS011;50353;51.420;5.682;2023-07-20T03:01:33;7.07;;;3.45;;
64094;SDS011;50353;51.420;5.682;2023-07-20T03:03:59;5.88;;;3.83;;
64094;SDS011;50353;51.420;5.682;2023-07-20T03:06:24;7.63;;;3.50;;
64094;SDS011;50353;51.420;5.682;2023-07-20T03:08:49;5.95;;;3.83;;
64094;SDS011;50353;51.420;5.682;2023-07-20T03:11:18;6.63;;;3.92;;
64094;SDS011;50353;51.420;5.682;2023-07-20T03:13:45;7.78;;;4.10;;
64094;SDS011;50353;51.420;5.682;2023-07-20T03:16:11;9.13;;;3.65;;
64094;SDS011;50353;51.420;5.682;2023-07-20T03:18:41;8.25;;;3.92;;
64094;SDS011;50353;51.420;5.682;2023-07-20T03:21:07;6.43;;;3.80;;
64094;SDS011;50353;51.420;5.682;2023-07-20T03:23:33;8.73;;;4.03;;
64094;SDS011;50353;51.420;5.682;2023-07-20T03:25:59;8.30;;;4.00;;
64094;SDS011;50353;51.420;5.682;2023-07-20T03:28:25;8.20;;;4.13;;
64094;SDS011;50353;51.420;5.682;2023-07-20T03:30:54;7.43;;;4.10;;
64094;SDS011;50353;51.420;5.682;2023-07-20T03:33:30;8.40;;;4.90;;
64094;SDS011;50353;51.420;5.682;2023-07-20T03:35:56;10.52;;;4.38;;
64094;SDS011;50353;51.420;5.682;2023-07-20T03:38:22;10.02;;;4.85;;
64094;SDS011;50353;51.420;5.682;2023-07-20T03:40:54;9.93;;;5.03;;
64094;SDS011;50353;51.420;5.682;2023-07-20T03:45:46;7.75;;;4.47;;
64094;SDS011;50353;51.420;5.682;2023-07-20T03:48:13;9.27;;;5.25;;
64094;SDS011;50353;51.420;5.682;2023-07-20T03:50:40;7.15;;;4.63;;
64094;SDS011;50353;51.420;5.682;2023-07-20T03:53:05;8.70;;;4.93;;
64094;SDS011;50353;51.420;5.682;2023-07-20T03:55:30;8.53;;;5.30;;
64094;SDS011;50353;51.420;5.682;2023-07-20T03:57:55;6.83;;;4.60;;
64094;SDS011;50353;51.420;5.682;2023-07-20T04:00:21;11.35;;;5.97;;
64094;SDS011;50353;51.420;5.682;2023-07-20T04:02:46;7.43;;;4.95;;
64094;SDS011;50353;51.420;5.682;2023-07-20T04:05:11;9.23;;;5.67;;
64094;SDS011;50353;51.420;5.682;2023-07-20T04:07:37;14.43;;;6.77;;
64094;SDS011;50353;51.420;5.682;2023-07-20T04:10:02;10.20;;;6.47;;
64094;SDS011;50353;51.420;5.682;2023-07-20T04:12:27;6.97;;;5.07;;
64094;SDS011;50353;51.420;5.682;2023-07-20T04:14:53;11.23;;;5.97;;
64094;SDS011;50353;51.420;5.682;2023-07-20T04:17:18;9.47;;;5.77;;
64094;SDS011;50353;51.420;5.682;2023-07-20T04:19:43;16.70;;;7.10;;
64094;SDS011;50353;51.420;5.682;2023-07-20T04:22:09;9.07;;;5.88;;
64094;SDS011;50353;51.420;5.682;2023-07-20T04:24:34;12.45;;;6.35;;
64094;SDS011;50353;51.420;5.682;2023-07-20T04:26:59;10.90;;;6.10;;
64094;SDS011;50353;51.420;5.682;2023-07-20T04:29:25;9.27;;;5.77;;
64094;SDS011;50353;51.420;5.682;2023-07-20T04:31:50;8.33;;;5.73;;
64094;SDS011;50353;51.420;5.682;2023-07-20T04:34:16;7.80;;;5.53;;
64094;SDS011;50353;51.420;5.682;2023-07-20T04:36:41;8.17;;;5.63;;
64094;SDS011;50353;51.420;5.682;2023-07-20T04:39:06;7.10;;;5.53;;
64094;SDS011;50353;51.420;5.682;2023-07-20T04:41:33;8.35;;;5.13;;
64094;SDS011;50353;51.420;5.682;2023-07-20T04:43:58;7.93;;;5.50;;
64094;SDS011;50353;51.420;5.682;2023-07-20T04:46:24;9.30;;;4.43;;
64094;SDS011;50353;51.420;5.682;2023-07-20T04:48:49;7.70;;;5.13;;
64094;SDS011;50353;51.420;5.682;2023-07-20T04:51:14;7.13;;;5.13;;
64094;SDS011;50353;51.420;5.682;2023-07-20T04:53:39;8.00;;;5.18;;
64094;SDS011;50353;51.420;5.682;2023-07-20T04:56:05;7.03;;;4.90;;
64094;SDS011;50353;51.420;5.682;2023-07-20T04:58:30;7.22;;;4.55;;
64094;SDS011;50353;51.420;5.682;2023-07-20T05:00:55;8.37;;;5.40;;
64094;SDS011;50353;51.420;5.682;2023-07-20T05:03:21;7.17;;;4.90;;
64094;SDS011;50353;51.420;5.682;2023-07-20T05:05:49;8.07;;;5.40;;
64094;SDS011;50353;51.420;5.682;2023-07-20T05:08:14;9.30;;;5.57;;
64094;SDS011;50353;51.420;5.682;2023-07-20T05:10:41;6.82;;;4.90;;
64094;SDS011;50353;51.420;5.682;2023-07-20T05:13:06;7.88;;;5.28;;
64094;SDS011;50353;51.420;5.682;2023-07-20T05:15:32;7.20;;;5.00;;
64094;SDS011;50353;51.420;5.682;2023-07-20T05:17:59;6.20;;;4.50;;
64094;SDS011;50353;51.420;5.682;2023-07-20T05:20:24;7.00;;;4.53;;
64094;SDS011;50353;51.420;5.682;2023-07-20T05:22:49;7.13;;;4.47;;
64094;SDS011;50353;51.420;5.682;2023-07-20T05:25:15;8.20;;;4.90;;
64094;SDS011;50353;51.420;5.682;2023-07-20T05:27:43;7.30;;;4.38;;
64094;SDS011;50353;51.420;5.682;2023-07-20T05:30:08;7.70;;;4.35;;
64094;SDS011;50353;51.420;5.682;2023-07-20T05:32:34;7.18;;;3.83;;
64094;SDS011;50353;51.420;5.682;2023-07-20T05:34:59;5.90;;;3.80;;
64094;SDS011;50353;51.420;5.682;2023-07-20T05:37:24;4.73;;;3.60;;
64094;SDS011;50353;51.420;5.682;2023-07-20T05:39:50;7.05;;;4.35;;
64094;SDS011;50353;51.420;5.682;2023-07-20T05:42:16;6.57;;;3.92;;
64094;SDS011;50353;51.420;5.682;2023-07-20T05:44:41;6.60;;;4.10;;
64094;SDS011;50353;51.420;5.682;2023-07-20T05:47:06;6.35;;;4.35;;
64094;SDS011;50353;51.420;5.682;2023-07-20T05:49:32;5.95;;;4.00;;
64094;SDS011;50353;51.420;5.682;2023-07-20T05:51:57;5.03;;;3.30;;
64094;SDS011;50353;51.420;5.682;2023-07-20T05:54:26;4.35;;;3.50;;
64094;SDS011;50353;51.420;5.682;2023-07-20T05:56:51;4.85;;;3.67;;
64094;SDS011;50353;51.420;5.682;2023-07-20T05:59:17;5.70;;;3.50;;
64094;SDS011;50353;51.420;5.682;2023-07-20T06:01:43;3.90;;;2.97;;
64094;SDS011;50353;51.420;5.682;2023-07-20T06:04:08;4.00;;;2.95;;
64094;SDS011;50353;51.420;5.682;2023-07-20T06:06:34;3.38;;;2.67;;
64094;SDS011;50353;51.420;5.682;2023-07-20T06:09:00;3.10;;;2.20;;
64094;SDS011;50353;51.420;5.682;2023-07-20T06:11:29;4.32;;;2.78;;
64094;SDS011;50353;51.420;5.682;2023-07-20T06:13:55;3.50;;;2.13;;
64094;SDS011;50353;51.420;5.682;2023-07-20T06:16:20;4.23;;;2.40;;
64094;SDS011;50353;51.420;5.682;2023-07-20T06:18:45;3.60;;;1.83;;
64094;SDS011;50353;51.420;5.682;2023-07-20T06:21:11;4.38;;;2.20;;
64094;SDS011;50353;51.420;5.682;2023-07-20T06:23:37;2.88;;;1.58;;
64094;SDS011;50353;51.420;5.682;2023-07-20T06:26:03;3.80;;;1.90;;
64094;SDS011;50353;51.420;5.682;2023-07-20T06:28:28;4.00;;;2.20;;
64094;SDS011;50353;51.420;5.682;2023-07-20T06:30:58;2.43;;;1.73;;
64094;SDS011;50353;51.420;5.682;2023-07-20T06:33:25;2.17;;;1.45;;
64094;SDS011;50353;51.420;5.682;2023-07-20T06:35:50;2.63;;;1.60;;
64094;SDS011;50353;51.420;5.682;2023-07-20T06:38:17;2.22;;;1.40;;
64094;SDS011;50353;51.420;5.682;2023-07-20T06:40:42;1.60;;;1.30;;
64094;SDS011;50353;51.420;5.682;2023-07-20T06:43:08;2.40;;;1.60;;
64094;SDS011;50353;51.420;5.682;2023-07-20T06:45:33;2.83;;;1.70;;
64094;SDS011;50353;51.420;5.682;2023-07-20T06:47:58;2.65;;;2.00;;
64094;SDS011;50353;51.420;5.682;2023-07-20T06:50:23;2.37;;;1.43;;
64094;SDS011;50353;51.420;5.682;2023-07-20T06:52:49;2.95;;;1.20;;
64094;SDS011;50353;51.420;5.682;2023-07-20T06:55:14;1.93;;;1.23;;
64094;SDS011;50353;51.420;5.682;2023-07-20T06:57:40;3.60;;;1.63;;
64094;SDS011;50353;51.420;5.682;2023-07-20T07:00:05;4.23;;;2.03;;
64094;SDS011;50353;51.420;5.682;2023-07-20T07:02:32;3.00;;;1.30;;
64094;SDS011;50353;51.420;5.682;2023-07-20T07:04:57;3.47;;;1.67;;
64094;SDS011;50353;51.420;5.682;2023-07-20T07:07:22;2.30;;;1.40;;
64094;SDS011;50353;51.420;5.682;2023-07-20T07:09:47;3.53;;;1.40;;
64094;SDS011;50353;51.420;5.682;2023-07-20T07:12:13;2.60;;;1.33;;
64094;SDS011;50353;51.420;5.682;2023-07-20T07:14:39;1.90;;;1.65;;
64094;SDS011;50353;51.420;5.682;2023-07-20T07:17:04;1.60;;;1.27;;
64094;SDS011;50353;51.420;5.682;2023-07-20T07:19:29;5.00;;;1.60;;
64094;SDS011;50353;51.420;5.682;2023-07-20T07:21:55;6.28;;;1.83;;
64094;SDS011;50353;51.420;5.682;2023-07-20T07:24:20;2.20;;;1.40;;
64094;SDS011;50353;51.420;5.682;2023-07-20T07:26:45;2.80;;;1.42;;
64094;SDS011;50353;51.420;5.682;2023-07-20T07:29:11;3.30;;;1.30;;
64094;SDS011;50353;51.420;5.682;2023-07-20T07:31:36;1.95;;;1.10;;
64094;SDS011;50353;51.420;5.682;2023-07-20T07:34:02;2.33;;;1.30;;
64094;SDS011;50353;51.420;5.682;2023-07-20T07:36:28;3.47;;;1.30;;
64094;SDS011;50353;51.420;5.682;2023-07-20T07:38:53;2.38;;;1.42;;
64094;SDS011;50353;51.420;5.682;2023-07-20T07:41:18;2.13;;;1.27;;
64094;SDS011;50353;51.420;5.682;2023-07-20T07:43:44;2.83;;;1.40;;
64094;SDS011;50353;51.420;5.682;2023-07-20T07:46:09;2.85;;;1.35;;
64094;SDS011;50353;51.420;5.682;2023-07-20T07:48:34;4.40;;;1.30;;
64094;SDS011;50353;51.420;5.682;2023-07-20T07:51:00;2.27;;;0.87;;
64094;SDS011;50353;51.420;5.682;2023-07-20T07:53:25;3.10;;;0.90;;
64094;SDS011;50353;51.420;5.682;2023-07-20T07:55:53;2.13;;;1.35;;
64094;SDS011;50353;51.420;5.682;2023-07-20T07:58:18;3.00;;;2.05;;
64094;SDS011;50353;51.420;5.682;2023-07-20T08:00:44;1.55;;;0.90;;
64094;SDS011;50353;51.420;5.682;2023-07-20T08:03:09;2.67;;;1.27;;
64094;SDS011;50353;51.420;5.682;2023-07-20T08:05:35;3.10;;;1.20;;
64094;SDS011;50353;51.420;5.682;2023-07-20T08:08:01;1.23;;;0.60;;
64094;SDS011;50353;51.420;5.682;2023-07-20T08:10:28;3.03;;;1.00;;
64094;SDS011;50353;51.420;5.682;2023-07-20T08:12:54;2.13;;;0.80;;
64094;SDS011;50353;51.420;5.682;2023-07-20T08:15:19;2.60;;;0.87;;
64094;SDS011;50353;51.420;5.682;2023-07-20T08:17:45;3.55;;;1.27;;
64094;SDS011;50353;51.420;5.682;2023-07-20T08:20:11;2.00;;;1.20;;
64094;SDS011;50353;51.420;5.682;2023-07-20T08:22:38;2.53;;;1.23;;
64094;SDS011;50353;51.420;5.682;2023-07-20T08:25:04;2.55;;;1.23;;
64094;SDS011;50353;51.420;5.682;2023-07-20T08:27:30;2.70;;;0.82;;
64094;SDS011;50353;51.420;5.682;2023-07-20T08:29:56;1.87;;;1.30;;
64094;SDS011;50353;51.420;5.682;2023-07-20T08:32:21;2.35;;;0.90;;
64094;SDS011;50353;51.420;5.682;2023-07-20T08:34:46;1.50;;;0.70;;
64094;SDS011;50353;51.420;5.682;2023-07-20T08:37:11;2.60;;;0.90;;
64094;SDS011;50353;51.420;5.682;2023-07-20T08:39:37;1.50;;;1.00;;
64094;SDS011;50353;51.420;5.682;2023-07-20T08:42:02;1.83;;;0.93;;
64094;SDS011;50353;51.420;5.682;2023-07-20T08:44:32;3.78;;;0.80;;
64094;SDS011;50353;51.420;5.682;2023-07-20T08:46:58;3.42;;;0.70;;
64094;SDS011;50353;51.420;5.682;2023-07-20T08:49:26;5.35;;;0.90;;
64094;SDS011;50353;51.420;5.682;2023-07-20T08:51:52;2.15;;;0.75;;
64094;SDS011;50353;51.420;5.682;2023-07-20T08:54:18;2.22;;;0.70;;
64094;SDS011;50353;51.420;5.682;2023-07-20T08:56:43;2.20;;;0.82;;
64094;SDS011;50353;51.420;5.682;2023-07-20T08:59:11;2.00;;;0.70;;
64094;SDS011;50353;51.420;5.682;2023-07-20T09:01:42;2.30;;;1.13;;
64094;SDS011;50353;51.420;5.682;2023-07-20T09:06:34;4.57;;;2.03;;
64094;SDS011;50353;51.420;5.682;2023-07-20T09:09:00;2.67;;;0.85;;
64094;SDS011;50353;51.420;5.682;2023-07-20T09:11:25;2.35;;;1.70;;
64094;SDS011;50353;51.420;5.682;2023-07-20T09:14:03;1.42;;;1.10;;
64094;SDS011;50353;51.420;5.682;2023-07-20T09:16:30;1.83;;;0.80;;
64094;SDS011;50353;51.420;5.682;2023-07-20T09:18:57;2.38;;;0.93;;
64094;SDS011;50353;51.420;5.682;2023-07-20T09:21:23;1.88;;;0.98;;
64094;SDS011;50353;51.420;5.682;2023-07-20T09:23:48;1.20;;;0.90;;
64094;SDS011;50353;51.420;5.682;2023-07-20T09:26:18;1.63;;;1.00;;
64094;SDS011;50353;51.420;5.682;2023-07-20T09:28:44;1.70;;;0.70;;
64094;SDS011;50353;51.420;5.682;2023-07-20T09:31:17;1.92;;;0.70;;
64094;SDS011;50353;51.420;5.682;2023-07-20T09:33:44;1.33;;;0.70;;
64094;SDS011;50353;51.420;5.682;2023-07-20T09:36:09;1.20;;;0.70;;
64094;SDS011;50353;51.420;5.682;2023-07-20T09:41:01;2.58;;;0.25;;
64094;SDS011;50353;51.420;5.682;2023-07-20T09:43:28;1.65;;;0.77;;
64094;SDS011;50353;51.420;5.682;2023-07-20T09:45:57;1.42;;;0.40;;
64094;SDS011;50353;51.420;5.682;2023-07-20T09:48:23;1.35;;;0.43;;
64094;SDS011;50353;51.420;5.682;2023-07-20T09:50:50;0.95;;;0.43;;
64094;SDS011;50353;51.420;5.682;2023-07-20T09:53:16;2.50;;;0.38;;
64094;SDS011;50353;51.420;5.682;2023-07-20T09:55:46;2.15;;;0.30;;
64094;SDS011;50353;51.420;5.682;2023-07-20T09:58:12;0.80;;;0.40;;
64094;SDS011;50353;51.420;5.682;2023-07-20T10:00:39;0.80;;;0.25;;
64094;SDS011;50353;51.420;5.682;2023-07-20T10:03:06;0.75;;;0.43;;
64094;SDS011;50353;51.420;5.682;2023-07-20T10:05:43;1.02;;;0.32;;
64094;SDS011;50353;51.420;5.682;2023-07-20T10:08:23;1.02;;;0.30;;
64094;SDS011;50353;51.420;5.682;2023-07-20T10:10:49;0.40;;;0.30;;
64094;SDS011;50353;51.420;5.682;2023-07-20T10:13:21;3.00;;;0.30;;
64094;SDS011;50353;51.420;5.682;2023-07-20T10:15:50;1.38;;;0.30;;
64094;SDS011;50353;51.420;5.682;2023-07-20T10:20:56;2.55;;;0.60;;
64094;SDS011;50353;51.420;5.682;2023-07-20T10:23:25;0.90;;;0.40;;
64094;SDS011;50353;51.420;5.682;2023-07-20T10:25:53;1.15;;;0.30;;
64094;SDS011;50353;51.420;5.682;2023-07-20T10:28:20;1.63;;;0.30;;
64094;SDS011;50353;51.420;5.682;2023-07-20T10:30:48;1.67;;;0.10;;
64094;SDS011;50353;51.420;5.682;2023-07-20T10:33:15;1.25;;;0.30;;
64094;SDS011;50353;51.420;5.682;2023-07-20T10:35:52;1.40;;;0.63;;
64094;SDS011;50353;51.420;5.682;2023-07-20T10:38:19;2.35;;;1.23;;
64094;SDS011;50353;51.420;5.682;2023-07-20T10:40:53;1.42;;;0.25;;
64094;SDS011;50353;51.420;5.682;2023-07-20T10:43:19;0.65;;;0.20;;
64094;SDS011;50353;51.420;5.682;2023-07-20T10:45:49;0.82;;;0.20;;
64094;SDS011;50353;51.420;5.682;2023-07-20T10:48:16;0.55;;;0.30;;
64094;SDS011;50353;51.420;5.682;2023-07-20T10:50:44;0.50;;;0.20;;
64094;SDS011;50353;51.420;5.682;2023-07-20T10:53:11;1.05;;;0.28;;
64094;SDS011;50353;51.420;5.682;2023-07-20T10:55:38;0.65;;;0.30;;
64094;SDS011;50353;51.420;5.682;2023-07-20T10:58:10;0.82;;;0.20;;
64094;SDS011;50353;51.420;5.682;2023-07-20T11:00:58;1.85;;;0.40;;
64094;SDS011;50353;51.420;5.682;2023-07-20T11:03:38;1.30;;;0.20;;
64094;SDS011;50353;51.420;5.682;2023-07-20T11:08:56;1.23;;;0.40;;
64094;SDS011;50353;51.420;5.682;2023-07-20T11:14:01;0.80;;;0.47;;
64094;SDS011;50353;51.420;5.682;2023-07-20T11:16:35;0.80;;;0.40;;
64094;SDS011;50353;51.420;5.682;2023-07-20T11:19:04;0.95;;;0.20;;
64094;SDS011;50353;51.420;5.682;2023-07-20T11:21:35;28.15;;;18.80;;
64094;SDS011;50353;51.420;5.682;2023-07-20T11:24:05;2.83;;;1.38;;
64094;SDS011;50353;51.420;5.682;2023-07-20T11:26:39;0.95;;;0.28;;
64094;SDS011;50353;51.420;5.682;2023-07-20T11:29:05;0.82;;;0.20;;
64094;SDS011;50353;51.420;5.682;2023-07-20T11:31:30;1.17;;;0.30;;
64094;SDS011;50353;51.420;5.682;2023-07-20T11:33:55;0.85;;;0.28;;
64094;SDS011;50353;51.420;5.682;2023-07-20T11:36:21;7.03;;;3.73;;
64094;SDS011;50353;51.420;5.682;2023-07-20T11:38:46;2.85;;;0.50;;
64094;SDS011;50353;51.420;5.682;2023-07-20T11:41:12;0.90;;;0.38;;
64094;SDS011;50353;51.420;5.682;2023-07-20T11:43:38;1.67;;;0.30;;
64094;SDS011;50353;51.420;5.682;2023-07-20T11:46:04;0.52;;;0.20;;
64094;SDS011;50353;51.420;5.682;2023-07-20T11:48:30;0.52;;;0.30;;
64094;SDS011;50353;51.420;5.682;2023-07-20T11:50:55;1.58;;;0.35;;
64094;SDS011;50353;51.420;5.682;2023-07-20T11:53:21;0.77;;;0.28;;
64094;SDS011;50353;51.420;5.682;2023-07-20T11:55:46;2.50;;;0.28;;
64094;SDS011;50353;51.420;5.682;2023-07-20T11:58:12;0.90;;;0.35;;
64094;SDS011;50353;51.420;5.682;2023-07-20T12:00:38;1.43;;;0.57;;
64094;SDS011;50353;51.420;5.682;2023-07-20T12:03:07;0.75;;;0.20;;
64094;SDS011;50353;51.420;5.682;2023-07-20T12:05:32;0.98;;;0.40;;
64094;SDS011;50353;51.420;5.682;2023-07-20T12:07:58;0.60;;;0.20;;
64094;SDS011;50353;51.420;5.682;2023-07-20T12:10:27;1.75;;;0.32;;
64094;SDS011;50353;51.420;5.682;2023-07-20T12:12:53;0.75;;;0.30;;
64094;SDS011;50353;51.420;5.682;2023-07-20T12:17:52;1.25;;;0.30;;
64094;SDS011;50353;51.420;5.682;2023-07-20T12:20:25;1.38;;;0.30;;
64094;SDS011;50353;51.420;5.682;2023-07-20T12:23:00;0.52;;;0.28;;
64094;SDS011;50353;51.420;5.682;2023-07-20T12:25:33;1.55;;;0.30;;
64094;SDS011;50353;51.420;5.682;2023-07-20T12:28:04;1.10;;;0.32;;
64094;SDS011;50353;51.420;5.682;2023-07-20T12:30:34;1.05;;;0.38;;
64094;SDS011;50353;51.420;5.682;2023-07-20T12:32:59;1.40;;;0.30;;
64094;SDS011;50353;51.420;5.682;2023-07-20T12:35:25;2.35;;;0.60;;
64094;SDS011;50353;51.420;5.682;2023-07-20T12:37:50;2.22;;;1.17;;
64094;SDS011;50353;51.420;5.682;2023-07-20T12:40:16;1.10;;;0.32;;
64094;SDS011;50353;51.420;5.682;2023-07-20T12:42:42;0.75;;;0.32;;
64094;SDS011;50353;51.420;5.682;2023-07-20T12:45:07;0.57;;;0.20;;
64094;SDS011;50353;51.420;5.682;2023-07-20T12:47:33;2.00;;;0.40;;
64094;SDS011;50353;51.420;5.682;2023-07-20T12:49:59;0.90;;;0.20;;
64094;SDS011;50353;51.420;5.682;2023-07-20T12:52:24;1.40;;;0.40;;
64094;SDS011;50353;51.420;5.682;2023-07-20T12:54:49;1.00;;;0.40;;
64094;SDS011;50353;51.420;5.682;2023-07-20T12:57:15;0.65;;;0.30;;
64094;SDS011;50353;51.420;5.682;2023-07-20T12:59:40;0.35;;;0.20;;
64094;SDS011;50353;51.420;5.682;2023-07-20T13:02:06;1.63;;;0.40;;
64094;SDS011;50353;51.420;5.682;2023-07-20T13:04:31;0.73;;;0.30;;
64094;SDS011;50353;51.420;5.682;2023-07-20T13:06:56;2.50;;;0.40;;
64094;SDS011;50353;51.420;5.682;2023-07-20T13:09:23;1.55;;;0.40;;
64094;SDS011;50353;51.420;5.682;2023-07-20T13:11:49;1.65;;;0.20;;
64094;SDS011;50353;51.420;5.682;2023-07-20T13:14:14;1.50;;;0.37;;
64094;SDS011;50353;51.420;5.682;2023-07-20T13:16:39;1.42;;;0.20;;
64094;SDS011;50353;51.420;5.682;2023-07-20T13:19:05;1.50;;;0.30;;
64094;SDS011;50353;51.420;5.682;2023-07-20T13:21:30;0.87;;;0.20;;
64094;SDS011;50353;51.420;5.682;2023-07-20T13:23:55;2.33;;;0.57;;
64094;SDS011;50353;51.420;5.682;2023-07-20T13:26:20;1.00;;;0.40;;
64094;SDS011;50353;51.420;5.682;2023-07-20T13:28:46;0.50;;;0.30;;
64094;SDS011;50353;51.420;5.682;2023-07-20T13:31:11;0.57;;;0.30;;
64094;SDS011;50353;51.420;5.682;2023-07-20T13:33:37;1.55;;;0.40;;
64094;SDS011;50353;51.420;5.682;2023-07-20T13:36:02;1.88;;;0.32;;
64094;SDS011;50353;51.420;5.682;2023-07-20T13:38:30;1.33;;;0.40;;
64094;SDS011;50353;51.420;5.682;2023-07-20T13:40:56;1.08;;;0.40;;
64094;SDS011;50353;51.420;5.682;2023-07-20T13:43:22;1.08;;;0.30;;
64094;SDS011;50353;51.420;5.682;2023-07-20T13:45:47;0.60;;;0.30;;
64094;SDS011;50353;51.420;5.682;2023-07-20T13:48:12;1.10;;;0.60;;
64094;SDS011;50353;51.420;5.682;2023-07-20T13:50:39;2.70;;;0.50;;
64094;SDS011;50353;51.420;5.682;2023-07-20T13:53:04;1.50;;;0.50;;
64094;SDS011;50353;51.420;5.682;2023-07-20T13:55:29;0.87;;;0.63;;
64094;SDS011;50353;51.420;5.682;2023-07-20T13:57:56;0.80;;;0.30;;
64094;SDS011;50353;51.420;5.682;2023-07-20T14:00:21;4.77;;;0.40;;
64094;SDS011;50353;51.420;5.682;2023-07-20T14:02:46;0.77;;;0.40;;
64094;SDS011;50353;51.420;5.682;2023-07-20T14:05:11;0.87;;;0.50;;
64094;SDS011;50353;51.420;5.682;2023-07-20T14:07:37;1.17;;;0.50;;
64094;SDS011;50353;51.420;5.682;2023-07-20T14:10:02;0.73;;;0.40;;
64094;SDS011;50353;51.420;5.682;2023-07-20T14:12:28;1.00;;;0.40;;
64094;SDS011;50353;51.420;5.682;2023-07-20T14:14:54;4.75;;;0.50;;
64094;SDS011;50353;51.420;5.682;2023-07-20T14:17:21;2.25;;;0.80;;
64094;SDS011;50353;51.420;5.682;2023-07-20T14:19:46;1.30;;;0.70;;
64094;SDS011;50353;51.420;5.682;2023-07-20T14:22:11;1.00;;;0.37;;
64094;SDS011;50353;51.420;5.682;2023-07-20T14:24:36;14.88;;;9.10;;
64094;SDS011;50353;51.420;5.682;2023-07-20T14:27:02;1.00;;;0.53;;
64094;SDS011;50353;51.420;5.682;2023-07-20T14:29:27;2.85;;;0.55;;
64094;SDS011;50353;51.420;5.682;2023-07-20T14:31:56;2.28;;;0.60;;
64094;SDS011;50353;51.420;5.682;2023-07-20T14:34:21;1.15;;;0.70;;
64094;SDS011;50353;51.420;5.682;2023-07-20T14:36:47;1.38;;;0.50;;
64094;SDS011;50353;51.420;5.682;2023-07-20T14:39:12;0.90;;;0.70;;
64094;SDS011;50353;51.420;5.682;2023-07-20T14:41:37;1.02;;;0.60;;
64094;SDS011;50353;51.420;5.682;2023-07-20T14:44:03;1.92;;;0.60;;
64094;SDS011;50353;51.420;5.682;2023-07-20T14:46:28;0.80;;;0.50;;
64094;SDS011;50353;51.420;5.682;2023-07-20T14:48:53;0.90;;;0.70;;
64094;SDS011;50353;51.420;5.682;2023-07-20T14:51:19;0.70;;;0.30;;
64094;SDS011;50353;51.420;5.682;2023-07-20T14:53:44;5.40;;;3.75;;
64094;SDS011;50353;51.420;5.682;2023-07-20T14:56:09;2.47;;;1.10;;
64094;SDS011;50353;51.420;5.682;2023-07-20T14:58:35;1.95;;;1.27;;
64094;SDS011;50353;51.420;5.682;2023-07-20T15:01:00;1.55;;;0.70;;
64094;SDS011;50353;51.420;5.682;2023-07-20T15:03:25;2.70;;;0.70;;
64094;SDS011;50353;51.420;5.682;2023-07-20T15:05:51;1.30;;;0.50;;
64094;SDS011;50353;51.420;5.682;2023-07-20T15:08:17;1.97;;;0.60;;
64094;SDS011;50353;51.420;5.682;2023-07-20T15:10:44;1.65;;;0.65;;
64094;SDS011;50353;51.420;5.682;2023-07-20T15:13:11;1.23;;;0.52;;